Time;durP1;ratioP1;P1;durP2;ratioP2;P2;SDS_P1;SDS_P2;PMS_P1;PMS_P2;Temp;Humidity;BMP_temperature;BMP_pressure;BME280_temperature;BME280_humidity;BME280_pressure;Samples;Min_cycle;Max_cycle;Signal;HPM_P1;HPM_P2
2023/12/18 00:00:28;;;;;;;8.07;3.28;;;;;;;;;;5008303;28;94485;-81
2023/12/18 00:02:55;;;;;;;8.00;3.20;;;;;;;;;;4994127;28;92379;-81
2023/12/18 00:05:22;;;;;;;6.35;2.88;;;;;;;;;;5006327;28;95131;-83
2023/12/18 00:07:48;;;;;;;7.47;3.20;;;;;;;;;;5006428;28;93093;-82
2023/12/18 00:10:15;;;;;;;10.13;3.08;;;;;;;;;;4988952;28;92124;-80
2023/12/18 00:12:42;;;;;;;9.43;3.08;;;;;;;;;;5007355;28;96118;-80
2023/12/18 00:15:08;;;;;;;6.95;3.00;;;;;;;;;;5005103;28;92434;-80
2023/12/18 00:17:35;;;;;;;15.88;3.47;;;;;;;;;;5004353;28;95786;-80
2023/12/18 00:20:02;;;;;;;11.15;3.28;;;;;;;;;;5002524;28;92764;-81
2023/12/18 00:22:31;;;;;;;15.25;3.85;;;;;;;;;;5001194;28;92332;-82
2023/12/18 00:24:57;;;;;;;10.50;3.28;;;;;;;;;;5003655;28;92345;-82
2023/12/18 00:27:24;;;;;;;14.25;3.38;;;;;;;;;;4992806;28;92940;-86
2023/12/18 00:29:54;;;;;;;10.45;3.50;;;;;;;;;;4985042;28;91316;-86
2023/12/18 00:32:23;;;;;;;11.07;3.60;;;;;;;;;;4983834;28;92132;-85
2023/12/18 00:34:49;;;;;;;12.95;3.33;;;;;;;;;;4991103;28;95408;-86
2023/12/18 00:37:19;;;;;;;8.13;2.90;;;;;;;;;;4984724;28;94857;-87
2023/12/18 00:39:45;;;;;;;10.77;3.42;;;;;;;;;;5002180;28;93692;-87
2023/12/18 00:42:12;;;;;;;7.38;3.28;;;;;;;;;;5001954;28;92436;-86
2023/12/18 00:44:38;;;;;;;8.82;3.13;;;;;;;;;;5004795;28;92335;-86
2023/12/18 00:47:05;;;;;;;8.57;3.20;;;;;;;;;;4985830;28;95484;-86
2023/12/18 00:49:32;;;;;;;8.15;3.10;;;;;;;;;;5003772;28;92066;-86
2023/12/18 00:51:59;;;;;;;;;;;;;;;;;;5004790;28;92372;-85
2023/12/18 00:54:26;;;;;;;7.13;3.03;;;;;;;;;;5004529;28;101788;-86
2023/12/18 00:56:52;;;;;;;8.10;3.55;;;;;;;;;;5007909;28;92570;-85
2023/12/18 00:59:19;;;;;;;7.95;3.28;;;;;;;;;;5004286;28;92803;-85
2023/12/18 01:01:46;;;;;;;9.25;3.00;;;;;;;;;;5002100;28;94821;-86
2023/12/18 01:04:12;;;;;;;7.80;3.33;;;;;;;;;;5001655;28;97679;-86
2023/12/18 01:06:39;;;;;;;7.40;3.10;;;;;;;;;;5002737;28;95033;-86
2023/12/18 01:09:05;;;;;;;7.88;3.00;;;;;;;;;;5003231;28;92307;-85
2023/12/18 01:11:32;;;;;;;9.05;3.50;;;;;;;;;;5002091;28;95396;-85
2023/12/18 01:13:58;;;;;;;7.90;3.25;;;;;;;;;;5002860;28;92793;-85
2023/12/18 01:16:25;;;;;;;8.35;3.20;;;;;;;;;;5002449;28;92402;-85
2023/12/18 01:18:52;;;;;;;8.43;3.28;;;;;;;;;;5007219;28;92509;-86
2023/12/18 01:21:18;;;;;;;8.32;3.17;;;;;;;;;;5014963;28;92290;-85
2023/12/18 01:23:45;;;;;;;7.50;3.10;;;;;;;;;;5008280;28;92338;-85
2023/12/18 01:26:12;;;;;;;6.40;2.70;;;;;;;;;;5016685;28;97484;-85
2023/12/18 01:28:40;;;;;;;8.43;3.10;;;;;;;;;;5017940;28;92152;-85
2023/12/18 01:31:07;;;;;;;8.55;3.30;;;;;;;;;;5002058;28;92339;-84
2023/12/18 01:33:35;;;;;;;8.68;3.10;;;;;;;;;;5015670;28;93626;-84
2023/12/18 01:36:01;;;;;;;7.82;3.25;;;;;;;;;;5021319;28;92427;-85
2023/12/18 01:38:28;;;;;;;5.53;2.88;;;;;;;;;;5009085;28;95481;-85
2023/12/18 01:40:54;;;;;;;8.68;2.95;;;;;;;;;;5006042;28;93013;-86
2023/12/18 01:43:25;;;;;;;9.38;3.10;;;;;;;;;;5022604;28;94765;-85
2023/12/18 01:45:59;;;;;;;7.20;2.83;;;;;;;;;;5023742;27;92616;-85
2023/12/18 01:48:26;;;;;;;7.97;3.03;;;;;;;;;;5021221;28;94351;-85
2023/12/18 01:50:54;;;;;;;7.75;3.20;;;;;;;;;;5000238;28;94686;-85
2023/12/18 01:53:29;;;;;;;6.63;3.03;;;;;;;;;;5009677;28;92779;-85
2023/12/18 01:55:56;;;;;;;7.47;3.05;;;;;;;;;;5003498;28;92060;-86
2023/12/18 01:58:24;;;;;;;9.20;3.10;;;;;;;;;;5000218;28;94803;-86
2023/12/18 02:00:51;;;;;;;7.07;3.03;;;;;;;;;;5005206;28;92675;-86
2023/12/18 02:03:19;;;;;;;8.77;3.42;;;;;;;;;;5014051;28;92728;-88
2023/12/18 02:05:46;;;;;;;9.15;2.72;;;;;;;;;;5003405;28;92937;-87
2023/12/18 02:08:13;;;;;;;9.30;3.00;;;;;;;;;;5036296;28;91662;-86
2023/12/18 02:10:40;;;;;;;8.48;3.20;;;;;;;;;;5022324;28;92426;-86
2023/12/18 02:13:06;;;;;;;7.82;2.85;;;;;;;;;;5021446;28;92481;-85
2023/12/18 02:15:33;;;;;;;8.93;3.35;;;;;;;;;;5020915;28;94590;-85
2023/12/18 02:17:59;;;;;;;6.93;2.88;;;;;;;;;;5029991;27;95173;-85
2023/12/18 02:20:26;;;;;;;7.38;3.03;;;;;;;;;;5022337;28;92651;-85
2023/12/18 02:22:53;;;;;;;6.68;2.90;;;;;;;;;;5026201;27;92355;-85
2023/12/18 02:25:20;;;;;;;8.18;2.95;;;;;;;;;;5021846;28;94038;-86
2023/12/18 02:27:48;;;;;;;9.05;2.85;;;;;;;;;;5022455;27;92225;-86
2023/12/18 02:30:16;;;;;;;8.45;3.00;;;;;;;;;;5003129;27;92930;-85
2023/12/18 02:32:43;;;;;;;;;;;;;;;;;;5001741;28;92036;-86
2023/12/18 02:35:09;;;;;;;6.88;3.00;;;;;;;;;;5012949;28;92534;-86
2023/12/18 02:37:36;;;;;;;6.63;2.75;;;;;;;;;;5021148;28;92502;-86
2023/12/18 02:40:03;;;;;;;7.43;2.95;;;;;;;;;;4999713;28;95080;-85
2023/12/18 02:42:29;;;;;;;8.27;2.97;;;;;;;;;;5000010;28;92392;-85
2023/12/18 02:44:56;;;;;;;8.23;2.92;;;;;;;;;;4987473;28;95289;-85
2023/12/18 02:47:23;;;;;;;7.80;3.05;;;;;;;;;;5001146;28;92391;-84
2023/12/18 02:49:49;;;;;;;6.47;2.90;;;;;;;;;;5002448;28;92788;-85
2023/12/18 02:52:16;;;;;;;7.50;3.10;;;;;;;;;;4999630;28;95046;-85
2023/12/18 02:54:43;;;;;;;;;;;;;;;;;;5002648;28;91967;-85
2023/12/18 02:57:10;;;;;;;7.32;2.88;;;;;;;;;;5003704;28;106331;-84
2023/12/18 02:59:36;;;;;;;6.75;2.70;;;;;;;;;;5002067;28;92675;-84
2023/12/18 03:02:03;;;;;;;7.03;2.67;;;;;;;;;;5001014;28;92024;-85
2023/12/18 03:04:30;;;;;;;6.65;2.85;;;;;;;;;;4998586;28;95036;-84
2023/12/18 03:06:56;;;;;;;6.78;3.13;;;;;;;;;;5003571;28;92792;-84
2023/12/18 03:09:23;;;;;;;12.13;3.33;;;;;;;;;;5001826;28;93259;-84
2023/12/18 03:11:49;;;;;;;10.30;3.28;;;;;;;;;;5001994;28;92690;-82
2023/12/18 03:14:16;;;;;;;8.55;3.03;;;;;;;;;;4999292;28;93041;-82
2023/12/18 03:16:42;;;;;;;12.35;3.40;;;;;;;;;;5001470;28;92558;-81
2023/12/18 03:19:09;;;;;;;13.52;3.13;;;;;;;;;;4999859;28;92777;-83
2023/12/18 03:21:35;;;;;;;7.13;3.25;;;;;;;;;;4984226;28;91813;-83
2023/12/18 03:24:02;;;;;;;11.13;3.22;;;;;;;;;;4998729;28;92181;-84
2023/12/18 03:26:29;;;;;;;8.38;3.10;;;;;;;;;;4998043;28;92625;-83
2023/12/18 03:28:55;;;;;;;9.02;3.40;;;;;;;;;;4989254;28;94619;-84
2023/12/18 03:31:22;;;;;;;11.43;3.22;;;;;;;;;;5000193;28;93078;-83
2023/12/18 03:33:48;;;;;;;7.45;2.88;;;;;;;;;;5000479;28;92558;-83
2023/12/18 03:36:15;;;;;;;7.72;3.03;;;;;;;;;;4982993;28;94960;-82
2023/12/18 03:38:42;;;;;;;7.82;2.92;;;;;;;;;;4994528;28;92623;-82
2023/12/18 03:41:08;;;;;;;7.07;2.80;;;;;;;;;;4995074;28;92539;-83
2023/12/18 03:43:35;;;;;;;9.00;3.22;;;;;;;;;;5014252;28;93416;-83
2023/12/18 03:46:02;;;;;;;9.90;3.00;;;;;;;;;;5003521;27;92020;-82
2023/12/18 03:48:28;;;;;;;6.47;2.90;;;;;;;;;;5003122;28;93005;-84
2023/12/18 03:50:55;;;;;;;9.93;3.15;;;;;;;;;;4984271;28;95009;-85
2023/12/18 03:53:21;;;;;;;8.52;3.10;;;;;;;;;;5000360;28;94566;-88
2023/12/18 03:55:48;;;;;;;9.38;3.10;;;;;;;;;;5003675;28;95028;-86
2023/12/18 03:58:15;;;;;;;7.75;3.00;;;;;;;;;;5001042;28;95143;-86
2023/12/18 04:00:41;;;;;;;8.73;3.00;;;;;;;;;;5009703;28;92241;-85
2023/12/18 04:03:08;;;;;;;8.02;3.38;;;;;;;;;;4997726;28;92471;-85
2023/12/18 04:05:35;;;;;;;10.55;3.40;;;;;;;;;;5003349;28;92633;-86
2023/12/18 04:08:01;;;;;;;7.35;3.17;;;;;;;;;;5016643;28;91782;-86
2023/12/18 04:10:28;;;;;;;8.02;2.80;;;;;;;;;;5017119;28;92351;-86
2023/12/18 04:12:54;;;;;;;7.53;3.00;;;;;;;;;;5024746;27;91942;-86
2023/12/18 04:15:21;;;;;;;6.82;3.03;;;;;;;;;;5018309;28;92004;-86
2023/12/18 04:17:48;;;;;;;7.45;3.15;;;;;;;;;;5028883;28;95023;-85
2023/12/18 04:20:16;;;;;;;8.50;3.08;;;;;;;;;;5003604;28;92367;-84
2023/12/18 04:22:42;;;;;;;8.90;3.53;;;;;;;;;;4999894;28;94492;-85
2023/12/18 04:25:09;;;;;;;8.43;3.03;;;;;;;;;;4984830;28;95175;-86
2023/12/18 04:27:36;;;;;;;13.32;3.22;;;;;;;;;;4999265;28;92192;-85
2023/12/18 04:30:03;;;;;;;10.55;3.45;;;;;;;;;;5039362;28;94572;-85
2023/12/18 04:32:29;;;;;;;9.60;3.72;;;;;;;;;;5030164;28;95056;-85
2023/12/18 04:34:56;;;;;;;9.02;3.42;;;;;;;;;;5018388;28;95295;-83
2023/12/18 04:37:22;;;;;;;8.90;3.30;;;;;;;;;;5008016;28;92839;-82
2023/12/18 04:39:49;;;;;;;8.98;3.38;;;;;;;;;;5013532;28;92081;-83
2023/12/18 04:42:16;;;;;;;7.55;3.33;;;;;;;;;;5024019;27;94866;-83
2023/12/18 04:44:42;;;;;;;8.02;3.28;;;;;;;;;;5008645;28;92395;-82
2023/12/18 04:47:09;;;;;;;8.20;3.20;;;;;;;;;;5005234;27;92189;-85
2023/12/18 04:49:35;;;;;;;8.18;3.30;;;;;;;;;;5003001;28;92072;-85
2023/12/18 04:52:02;;;;;;;9.30;3.30;;;;;;;;;;5002117;27;92996;-85
2023/12/18 04:54:29;;;;;;;9.63;3.53;;;;;;;;;;5002602;28;92254;-86
2023/12/18 04:56:55;;;;;;;8.35;3.70;;;;;;;;;;4983142;28;95341;-85
2023/12/18 04:59:22;;;;;;;9.50;3.30;;;;;;;;;;4967200;28;91596;-84
2023/12/18 05:01:48;;;;;;;10.25;3.55;;;;;;;;;;4984232;28;94139;-85
2023/12/18 05:04:15;;;;;;;10.60;3.40;;;;;;;;;;4994845;28;95304;-84
2023/12/18 05:06:41;;;;;;;9.80;3.38;;;;;;;;;;4999134;28;95935;-84
2023/12/18 05:09:08;;;;;;;9.23;3.40;;;;;;;;;;5004817;28;95199;-85
2023/12/18 05:11:35;;;;;;;8.02;3.42;;;;;;;;;;5004241;28;92069;-84
2023/12/18 05:14:01;;;;;;;14.35;3.95;;;;;;;;;;5015948;28;92254;-84
2023/12/18 05:16:28;;;;;;;7.45;3.00;;;;;;;;;;4995513;28;92665;-84
2023/12/18 05:18:56;;;;;;;10.77;3.50;;;;;;;;;;5010838;28;92381;-84
2023/12/18 05:21:23;;;;;;;10.35;3.40;;;;;;;;;;5012119;28;92251;-84
2023/12/18 05:23:50;;;;;;;8.77;3.60;;;;;;;;;;5004623;28;92507;-84
2023/12/18 05:26:17;;;;;;;9.52;3.75;;;;;;;;;;4985593;28;92196;-84
2023/12/18 05:28:43;;;;;;;8.68;3.30;;;;;;;;;;5004366;28;92733;-84
2023/12/18 05:31:10;;;;;;;8.55;3.60;;;;;;;;;;5001535;28;95203;-84
2023/12/18 05:33:37;;;;;;;10.00;3.50;;;;;;;;;;5002325;28;93702;-84
2023/12/18 05:36:04;;;;;;;9.68;3.80;;;;;;;;;;5003434;28;92650;-84
2023/12/18 05:38:31;;;;;;;8.45;3.15;;;;;;;;;;5006104;28;92768;-85
2023/12/18 05:40:57;;;;;;;9.13;3.65;;;;;;;;;;5003284;28;94701;-84
2023/12/18 05:43:24;;;;;;;8.82;3.63;;;;;;;;;;5002627;28;95196;-84
2023/12/18 05:45:50;;;;;;;7.53;3.60;;;;;;;;;;4986636;28;92708;-84
2023/12/18 05:48:17;;;;;;;10.35;3.80;;;;;;;;;;5002320;28;92596;-83
2023/12/18 05:50:44;;;;;;;8.85;3.60;;;;;;;;;;5003704;28;93251;-84
2023/12/18 05:53:10;;;;;;;7.63;3.40;;;;;;;;;;5012039;28;92717;-84
2023/12/18 05:55:37;;;;;;;10.43;3.80;;;;;;;;;;5037852;27;95068;-84
2023/12/18 05:58:03;;;;;;;9.60;3.80;;;;;;;;;;5025919;27;92794;-85
2023/12/18 06:00:30;;;;;;;9.82;3.80;;;;;;;;;;5006835;28;94891;-85
2023/12/18 06:02:57;;;;;;;8.30;3.28;;;;;;;;;;5014800;27;93237;-85
2023/12/18 06:05:23;;;;;;;10.00;3.65;;;;;;;;;;5015612;28;92125;-84
2023/12/18 06:07:50;;;;;;;9.95;3.88;;;;;;;;;;5007506;28;92583;-82
2023/12/18 06:10:16;;;;;;;12.15;3.95;;;;;;;;;;5005728;28;92234;-84
2023/12/18 06:12:43;;;;;;;10.25;3.70;;;;;;;;;;5016281;28;91411;-84
2023/12/18 06:15:10;;;;;;;9.18;3.75;;;;;;;;;;5003787;28;92180;-84
2023/12/18 06:17:37;;;;;;;7.20;3.60;;;;;;;;;;5001490;28;92892;-84
2023/12/18 06:20:05;;;;;;;10.00;3.60;;;;;;;;;;5020515;28;94537;-84
2023/12/18 06:22:32;;;;;;;7.95;3.45;;;;;;;;;;5003746;28;92394;-85
2023/12/18 06:24:58;;;;;;;9.95;4.10;;;;;;;;;;5010924;28;92175;-85
2023/12/18 06:27:25;;;;;;;8.43;3.55;;;;;;;;;;5011954;28;92449;-85
2023/12/18 06:29:51;;;;;;;8.60;3.70;;;;;;;;;;5018620;28;95699;-84
2023/12/18 06:32:18;;;;;;;10.07;4.20;;;;;;;;;;5006744;27;99471;-85
2023/12/18 06:34:45;;;;;;;10.18;4.50;;;;;;;;;;5030094;28;93047;-85
2023/12/18 06:37:14;;;;;;;7.60;3.42;;;;;;;;;;5002860;28;92408;-85
2023/12/18 06:39:41;;;;;;;10.85;3.97;;;;;;;;;;4997165;28;92297;-86
2023/12/18 06:42:08;;;;;;;9.40;3.83;;;;;;;;;;5022360;28;94707;-84
2023/12/18 06:44:35;;;;;;;8.65;3.60;;;;;;;;;;5022953;27;94390;-85
2023/12/18 06:47:02;;;;;;;8.18;3.70;;;;;;;;;;5014981;28;94870;-84
2023/12/18 06:49:28;;;;;;;9.18;3.60;;;;;;;;;;4985727;28;93535;-84
2023/12/18 06:51:58;;;;;;;9.52;3.92;;;;;;;;;;5002419;28;92064;-83
2023/12/18 06:54:26;;;;;;;11.77;3.85;;;;;;;;;;5018174;28;99709;-85
2023/12/18 06:56:53;;;;;;;7.75;3.33;;;;;;;;;;5001862;27;92665;-84
2023/12/18 06:59:20;;;;;;;10.02;3.75;;;;;;;;;;5003895;28;92215;-84
2023/12/18 07:01:46;;;;;;;9.32;3.70;;;;;;;;;;5019201;28;92446;-83
2023/12/18 07:04:13;;;;;;;8.75;3.60;;;;;;;;;;5040588;27;95238;-84
2023/12/18 07:06:40;;;;;;;8.55;3.63;;;;;;;;;;5016451;28;95305;-84
2023/12/18 07:09:07;;;;;;;10.73;3.90;;;;;;;;;;4999497;28;97361;-84
2023/12/18 07:11:36;;;;;;;11.35;3.70;;;;;;;;;;5003037;28;92228;-83
2023/12/18 07:14:02;;;;;;;8.75;4.32;;;;;;;;;;5001579;28;93384;-85
2023/12/18 07:16:29;;;;;;;9.70;3.75;;;;;;;;;;5018139;27;92835;-84
2023/12/18 07:18:55;;;;;;;10.95;3.50;;;;;;;;;;5008383;28;92352;-84
2023/12/18 07:21:22;;;;;;;7.97;3.70;;;;;;;;;;5010391;27;92468;-83
2023/12/18 07:23:49;;;;;;;8.10;3.38;;;;;;;;;;5015215;28;95640;-84
2023/12/18 07:26:16;;;;;;;7.47;3.33;;;;;;;;;;5040746;27;91604;-84
2023/12/18 07:28:43;;;;;;;19.30;4.10;;;;;;;;;;5017620;28;92964;-84
2023/12/18 07:31:10;;;;;;;10.00;3.60;;;;;;;;;;5018412;28;92362;-85
2023/12/18 07:33:36;;;;;;;10.48;4.45;;;;;;;;;;5013162;28;94542;-84
2023/12/18 07:36:03;;;;;;;15.35;3.78;;;;;;;;;;5009652;28;99222;-81
2023/12/18 07:38:30;;;;;;;8.45;3.53;;;;;;;;;;5032807;28;92143;-83
2023/12/18 07:40:57;;;;;;;9.13;3.33;;;;;;;;;;5031575;28;94694;-83
2023/12/18 07:43:23;;;;;;;8.77;3.40;;;;;;;;;;5027133;28;94918;-84
2023/12/18 07:45:50;;;;;;;15.27;3.20;;;;;;;;;;5032603;28;92395;-81
2023/12/18 07:48:21;;;;;;;8.13;3.25;;;;;;;;;;5036599;28;94488;-82
2023/12/18 07:50:48;;;;;;;7.82;2.75;;;;;;;;;;5025537;28;91223;-82
2023/12/18 07:53:15;;;;;;;11.43;2.90;;;;;;;;;;5014629;28;92143;-83
2023/12/18 07:55:42;;;;;;;6.60;2.72;;;;;;;;;;5002574;28;94853;-82
2023/12/18 07:58:08;;;;;;;8.68;3.08;;;;;;;;;;5021055;28;94844;-83
2023/12/18 08:00:35;;;;;;;6.60;2.67;;;;;;;;;;5024680;27;94811;-84
2023/12/18 08:03:03;;;;;;;6.30;2.42;;;;;;;;;;5023886;28;92375;-83
2023/12/18 08:05:29;;;;;;;7.25;2.65;;;;;;;;;;5026734;28;92152;-82
2023/12/18 08:07:56;;;;;;;7.57;3.00;;;;;;;;;;5028174;27;92693;-83
2023/12/18 08:10:23;;;;;;;7.72;2.70;;;;;;;;;;5021596;27;92202;-82
2023/12/18 08:12:51;;;;;;;6.22;2.60;;;;;;;;;;5004367;28;92110;-82
2023/12/18 08:15:18;;;;;;;7.50;2.88;;;;;;;;;;5010924;28;92279;-82
2023/12/18 08:17:45;;;;;;;8.32;2.80;;;;;;;;;;5023779;28;92160;-84
2023/12/18 08:20:12;;;;;;;;;;;;;;;;;;5022185;27;92773;-83
2023/12/18 08:22:39;;;;;;;6.07;2.65;;;;;;;;;;5020900;28;102308;-81
2023/12/18 08:25:06;;;;;;;6.55;2.60;;;;;;;;;;5008448;28;92149;-80
2023/12/18 08:27:34;;;;;;;8.85;2.85;;;;;;;;;;5011760;28;95190;-82
2023/12/18 08:30:05;;;;;;;7.65;2.60;;;;;;;;;;5007343;27;95065;-81
2023/12/18 08:32:32;;;;;;;5.65;2.45;;;;;;;;;;5004228;28;92738;-81
2023/12/18 08:35:00;;;;;;;10.13;2.60;;;;;;;;;;5012738;28;93546;-81
2023/12/18 08:37:29;;;;;;;6.70;2.28;;;;;;;;;;5002729;28;92123;-83
2023/12/18 08:39:56;;;;;;;6.30;2.53;;;;;;;;;;5000723;28;92478;-83
2023/12/18 08:42:23;;;;;;;7.57;2.80;;;;;;;;;;4966613;28;95188;-82
2023/12/18 08:44:49;;;;;;;7.45;2.85;;;;;;;;;;4998864;28;92203;-81
2023/12/18 08:47:16;;;;;;;5.47;2.38;;;;;;;;;;4994777;28;95149;-83
2023/12/18 08:49:43;;;;;;;5.80;2.45;;;;;;;;;;5004843;28;92623;-83
2023/12/18 08:52:09;;;;;;;5.50;2.50;;;;;;;;;;5008316;28;92069;-84
2023/12/18 08:54:36;;;;;;;6.70;2.67;;;;;;;;;;5017837;28;95045;-83
2023/12/18 08:57:03;;;;;;;6.97;2.65;;;;;;;;;;5003730;27;92057;-82
2023/12/18 08:59:29;;;;;;;6.75;2.30;;;;;;;;;;5016760;28;92848;-84
2023/12/18 09:01:56;;;;;;;6.10;2.55;;;;;;;;;;5007485;28;93375;-82
2023/12/18 09:04:22;;;;;;;8.93;2.72;;;;;;;;;;5022149;27;91769;-82
2023/12/18 09:06:49;;;;;;;5.35;2.38;;;;;;;;;;4981961;28;94101;-83
2023/12/18 09:09:16;;;;;;;6.47;2.50;;;;;;;;;;4985837;28;95074;-81
2023/12/18 09:11:42;;;;;;;6.53;2.85;;;;;;;;;;4997389;28;95341;-83
2023/12/18 09:14:09;;;;;;;7.97;2.70;;;;;;;;;;4986103;28;95224;-81
2023/12/18 09:16:36;;;;;;;6.85;2.70;;;;;;;;;;4999680;27;92208;-81
2023/12/18 09:19:04;;;;;;;5.82;2.47;;;;;;;;;;5002294;28;93200;-82
2023/12/18 09:21:31;;;;;;;8.43;2.58;;;;;;;;;;4998997;28;92951;-82
2023/12/18 09:23:57;;;;;;;6.45;2.40;;;;;;;;;;5001480;28;92214;-81
2023/12/18 09:26:24;;;;;;;6.93;2.65;;;;;;;;;;5004762;28;99525;-81
2023/12/18 09:28:50;;;;;;;6.57;2.70;;;;;;;;;;5031634;28;92479;-81
2023/12/18 09:31:17;;;;;;;7.32;2.55;;;;;;;;;;5002348;28;92366;-81
2023/12/18 09:33:45;;;;;;;6.43;2.47;;;;;;;;;;5001633;28;95412;-81
2023/12/18 09:36:12;;;;;;;;;;;;;;;;;;5001729;28;95159;-80
2023/12/18 09:38:39;;;;;;;7.15;2.88;;;;;;;;;;5003763;28;111732;-81
2023/12/18 09:41:07;;;;;;;5.78;2.58;;;;;;;;;;5000511;28;95222;-80
2023/12/18 09:43:35;;;;;;;7.68;2.67;;;;;;;;;;5001213;28;92098;-81
2023/12/18 09:46:02;;;;;;;6.20;2.53;;;;;;;;;;5001999;27;93036;-82
2023/12/18 09:48:29;;;;;;;6.00;2.60;;;;;;;;;;5004873;28;92687;-81
2023/12/18 09:50:56;;;;;;;5.80;2.55;;;;;;;;;;5021909;27;92556;-82
2023/12/18 09:53:23;;;;;;;;;;;;;;;;;;5011651;27;92378;-82
2023/12/18 09:55:51;;;;;;;6.13;2.33;;;;;;;;;;5002368;28;99957;-81
2023/12/18 09:58:18;;;;;;;6.22;2.33;;;;;;;;;;5021729;27;92410;-81
2023/12/18 10:00:46;;;;;;;6.53;2.58;;;;;;;;;;5018163;28;97143;-81
2023/12/18 10:03:15;;;;;;;8.57;2.60;;;;;;;;;;5011065;28;92508;-81
2023/12/18 10:05:42;;;;;;;5.75;2.50;;;;;;;;;;5016259;28;93173;-80
2023/12/18 10:08:09;;;;;;;9.18;2.83;;;;;;;;;;5021855;27;92652;-82
2023/12/18 10:10:36;;;;;;;6.90;2.50;;;;;;;;;;5020061;28;92348;-82
2023/12/18 10:13:05;;;;;;;6.60;2.50;;;;;;;;;;5020412;28;95179;-81
2023/12/18 10:15:34;;;;;;;6.93;2.60;;;;;;;;;;5020558;28;93178;-81
2023/12/18 10:18:01;;;;;;;7.07;2.65;;;;;;;;;;5023006;27;91309;-82
2023/12/18 10:20:28;;;;;;;5.60;2.40;;;;;;;;;;5019817;28;92679;-82
2023/12/18 10:22:54;;;;;;;6.68;2.40;;;;;;;;;;5022063;27;92496;-83
2023/12/18 10:25:22;;;;;;;5.72;2.35;;;;;;;;;;5010307;28;94410;-82
2023/12/18 10:27:49;;;;;;;6.28;2.50;;;;;;;;;;5021068;27;92664;-80
2023/12/18 10:30:15;;;;;;;6.53;2.60;;;;;;;;;;5018048;28;92219;-80
2023/12/18 10:32:46;;;;;;;6.47;2.75;;;;;;;;;;5011704;28;92377;-80
2023/12/18 10:35:13;;;;;;;6.53;2.60;;;;;;;;;;5006929;28;93070;-81
2023/12/18 10:37:45;;;;;;;7.03;2.45;;;;;;;;;;5019212;27;92572;-80
2023/12/18 10:40:12;;;;;;;6.93;2.25;;;;;;;;;;5011620;28;92893;-80
2023/12/18 10:42:39;;;;;;;;;;;;;;;;;;5020602;28;91613;-79
2023/12/18 10:45:06;;;;;;;8.98;2.70;;;;;;;;;;5020661;28;114467;-80
2023/12/18 10:47:33;;;;;;;;;;;;;;;;;;5006470;28;92732;-81
2023/12/18 10:50:01;;;;;;;6.80;2.70;;;;;;;;;;4998861;27;94518;-81
2023/12/18 10:52:31;;;;;;;6.35;2.55;;;;;;;;;;5000223;28;97678;-80
2023/12/18 10:54:59;;;;;;;7.13;2.60;;;;;;;;;;4982895;28;95347;-79
2023/12/18 10:57:26;;;;;;;5.65;2.50;;;;;;;;;;5013984;28;92591;-79
2023/12/18 10:59:55;;;;;;;5.00;2.20;;;;;;;;;;4996551;28;92209;-81
2023/12/18 11:02:22;;;;;;;;;;;;;;;;;;4999766;28;92790;-80
2023/12/18 11:04:49;;;;;;;5.68;2.42;;;;;;;;;;5002897;28;92318;-79
2023/12/18 11:07:16;;;;;;;5.50;2.45;;;;;;;;;;4995095;28;94560;-78
2023/12/18 11:09:43;;;;;;;5.32;2.65;;;;;;;;;;5021265;27;92548;-78
2023/12/18 11:12:11;;;;;;;5.25;2.50;;;;;;;;;;5021697;27;92434;-80
2023/12/18 11:14:58;;;;;;;6.97;2.60;;;;;;;;;;5015181;28;95423;-79
2023/12/18 11:17:48;;;;;;;6.90;2.65;;;;;;;;;;5002676;28;92119;-80
2023/12/18 11:20:20;;;;;;;6.80;2.40;;;;;;;;;;4988837;28;95375;-79
2023/12/18 11:22:47;;;;;;;8.02;2.72;;;;;;;;;;5000468;28;92770;-80
2023/12/18 11:25:16;;;;;;;7.07;2.67;;;;;;;;;;5002922;28;92530;-78
2023/12/18 11:27:43;;;;;;;7.35;2.50;;;;;;;;;;5000028;28;92832;-77
2023/12/18 11:30:30;;;;;;;6.32;2.80;;;;;;;;;;5000098;28;92498;-79
2023/12/18 11:32:58;;;;;;;6.45;2.67;;;;;;;;;;5012191;28;94583;-78
2023/12/18 11:35:25;;;;;;;;;;;;;;;;;;5001194;28;93114;-78
2023/12/18 11:37:52;;;;;;;6.75;2.60;;;;;;;;;;5002803;28;92164;-79
2023/12/18 11:40:41;;;;;;;6.78;2.70;;;;;;;;;;4996589;28;95087;-79
2023/12/18 11:43:12;;;;;;;6.43;2.80;;;;;;;;;;4998994;28;93066;-80
2023/12/18 11:45:40;;;;;;;6.15;3.00;;;;;;;;;;4982581;28;92374;-80
2023/12/18 11:48:07;;;;;;;8.15;2.78;;;;;;;;;;4985114;28;94707;-80
2023/12/18 11:50:36;;;;;;;6.38;2.60;;;;;;;;;;5000198;28;92224;-79
2023/12/18 11:53:06;;;;;;;6.43;2.70;;;;;;;;;;5000669;28;92729;-79
2023/12/18 11:55:40;;;;;;;6.18;2.50;;;;;;;;;;5012836;28;92834;-79
2023/12/18 11:58:07;;;;;;;7.00;2.63;;;;;;;;;;4990848;27;91972;-79
2023/12/18 12:00:34;;;;;;;6.72;2.75;;;;;;;;;;4987628;28;92142;-80
2023/12/18 12:03:01;;;;;;;6.90;2.80;;;;;;;;;;4999660;28;92888;-79
2023/12/18 12:05:36;;;;;;;6.95;2.78;;;;;;;;;;4996729;28;95059;-79
2023/12/18 12:08:03;;;;;;;6.05;2.60;;;;;;;;;;5001492;28;97652;-79
2023/12/18 12:10:30;;;;;;;8.15;2.90;;;;;;;;;;4988108;28;92775;-78
2023/12/18 12:12:57;;;;;;;6.07;2.78;;;;;;;;;;4999696;28;95077;-79
2023/12/18 12:15:24;;;;;;;;;;;;;;;;;;5001906;28;92380;-78
2023/12/18 12:17:51;;;;;;;6.70;2.70;;;;;;;;;;5005667;28;100966;-79
2023/12/18 12:20:18;;;;;;;7.22;3.00;;;;;;;;;;5003128;28;92975;-80
2023/12/18 12:22:44;;;;;;;6.20;2.88;;;;;;;;;;5003257;28;95148;-78
2023/12/18 12:25:11;;;;;;;6.97;2.85;;;;;;;;;;5013640;28;92200;-78
2023/12/18 12:27:37;;;;;;;7.78;3.03;;;;;;;;;;5024350;27;92535;-78
2023/12/18 12:30:05;;;;;;;7.32;2.95;;;;;;;;;;5005836;27;95278;-80
2023/12/18 12:32:35;;;;;;;6.88;3.10;;;;;;;;;;5003112;28;94780;-80
2023/12/18 12:35:02;;;;;;;8.27;3.10;;;;;;;;;;4997766;28;93149;-81
2023/12/18 12:37:29;;;;;;;7.88;3.10;;;;;;;;;;5003469;28;92528;-80
2023/12/18 12:40:05;;;;;;;7.53;3.00;;;;;;;;;;5002525;28;92652;-80
2023/12/18 12:42:32;;;;;;;7.88;2.90;;;;;;;;;;5001933;28;99959;-80
2023/12/18 12:45:01;;;;;;;10.32;3.00;;;;;;;;;;5002321;28;92069;-79
2023/12/18 12:47:29;;;;;;;6.38;2.80;;;;;;;;;;4986287;28;92980;-79
2023/12/18 12:50:01;;;;;;;8.15;3.22;;;;;;;;;;5002635;28;92239;-79
2023/12/18 12:52:29;;;;;;;6.90;2.85;;;;;;;;;;5006762;28;92151;-79
2023/12/18 12:54:55;;;;;;;6.85;2.90;;;;;;;;;;4988260;28;96847;-79
2023/12/18 12:57:22;;;;;;;6.75;3.10;;;;;;;;;;5004059;28;92028;-79
2023/12/18 12:59:50;;;;;;;8.23;3.10;;;;;;;;;;5003750;27;92614;-79
2023/12/18 13:02:17;;;;;;;7.88;3.17;;;;;;;;;;5003997;28;93266;-80
2023/12/18 13:04:44;;;;;;;;;;;;;;;;;;5017254;28;92416;-80
2023/12/18 13:07:11;;;;;;;6.97;2.85;;;;;;;;;;5029823;28;111457;-79
2023/12/18 13:09:37;;;;;;;7.72;3.03;;;;;;;;;;5009069;28;92798;-80
2023/12/18 13:12:04;;;;;;;7.57;3.03;;;;;;;;;;4982647;28;91698;-81
2023/12/18 13:14:31;;;;;;;10.27;3.00;;;;;;;;;;5000888;28;92196;-80
2023/12/18 13:16:58;;;;;;;7.38;2.90;;;;;;;;;;4990374;28;92536;-80
2023/12/18 13:19:25;;;;;;;5.75;2.63;;;;;;;;;;4995407;28;95119;-81
2023/12/18 13:21:52;;;;;;;8.80;3.42;;;;;;;;;;5000451;28;94140;-81
2023/12/18 13:24:19;;;;;;;7.43;3.00;;;;;;;;;;5005053;28;92232;-80
2023/12/18 13:26:48;;;;;;;6.47;2.90;;;;;;;;;;5004642;28;92192;-81
2023/12/18 13:29:16;;;;;;;8.18;3.38;;;;;;;;;;5004130;28;93262;-80
2023/12/18 13:31:42;;;;;;;7.05;2.75;;;;;;;;;;5006017;28;92103;-83
2023/12/18 13:34:09;;;;;;;7.05;2.80;;;;;;;;;;5004865;28;92911;-81
2023/12/18 13:36:36;;;;;;;7.55;2.90;;;;;;;;;;5021751;28;92799;-79
2023/12/18 13:39:02;;;;;;;7.88;2.70;;;;;;;;;;5002302;28;92213;-79
2023/12/18 13:41:32;;;;;;;7.57;2.78;;;;;;;;;;4994937;28;96027;-79
2023/12/18 13:44:00;;;;;;;7.75;3.10;;;;;;;;;;5033073;27;95069;-81
2023/12/18 13:46:26;;;;;;;;;;;;;;;;;;5021501;28;96901;-82
2023/12/18 13:48:53;;;;;;;7.60;2.53;;;;;;;;;;5002812;28;93779;-81
2023/12/18 13:51:20;;;;;;;6.68;2.60;;;;;;;;;;5002260;27;92123;-80
2023/12/18 13:53:47;;;;;;;11.30;3.20;;;;;;;;;;5000385;28;92677;-80
2023/12/18 13:56:14;;;;;;;6.43;2.78;;;;;;;;;;5000042;28;95433;-81
2023/12/18 13:58:40;;;;;;;7.22;2.90;;;;;;;;;;4987587;28;92670;-81
2023/12/18 14:01:07;;;;;;;6.57;2.75;;;;;;;;;;5001038;28;92597;-80
2023/12/18 14:03:33;;;;;;;7.55;3.08;;;;;;;;;;5001296;28;99357;-81
2023/12/18 14:06:03;;;;;;;6.28;2.72;;;;;;;;;;5001382;28;92499;-82
2023/12/18 14:08:30;;;;;;;6.20;2.88;;;;;;;;;;5016501;28;95163;-81
2023/12/18 14:10:57;;;;;;;8.45;2.83;;;;;;;;;;5008437;28;92750;-81
2023/12/18 14:13:23;;;;;;;7.43;2.70;;;;;;;;;;5009492;28;92298;-81
2023/12/18 14:15:50;;;;;;;8.07;2.95;;;;;;;;;;4999749;28;95645;-81
2023/12/18 14:18:17;;;;;;;6.78;2.83;;;;;;;;;;5023282;28;92130;-81
2023/12/18 14:20:45;;;;;;;5.80;2.75;;;;;;;;;;5003610;28;95061;-81
2023/12/18 14:23:12;;;;;;;5.68;2.90;;;;;;;;;;5020085;28;92222;-81
2023/12/18 14:25:38;;;;;;;7.70;2.90;;;;;;;;;;4997596;28;92767;-81
2023/12/18 14:28:05;;;;;;;;;;;;;;;;;;5001579;27;93033;-82
2023/12/18 14:30:32;;;;;;;6.95;2.90;;;;;;;;;;5000748;28;92072;-80
2023/12/18 14:32:59;;;;;;;7.00;3.00;;;;;;;;;;4991894;28;94754;-80
2023/12/18 14:35:26;;;;;;;6.38;2.50;;;;;;;;;;4992510;28;92810;-81
2023/12/18 14:37:53;;;;;;;6.75;2.92;;;;;;;;;;5001303;28;92180;-81
2023/12/18 14:40:20;;;;;;;6.00;2.80;;;;;;;;;;5028608;28;92814;-81
2023/12/18 14:42:49;;;;;;;6.85;2.85;;;;;;;;;;5001383;28;92585;-81
2023/12/18 14:45:16;;;;;;;7.82;3.00;;;;;;;;;;5001301;28;92436;-80